Highest pressure

Not for real navigation. The accuracy of this data is not assured See disclaimer for more information



ICAO NAME COUNTRY WIND Kt GUST Kt VIS m TEMP/DEW C BARO METAR
KMYP Salida Mountain, Monarch Pass CO United States 17 0 9999 0/-16 30.65 KMYP 160653Z AUTO 22017KT 10SM CAVOK 00/M16 A3065 RMK AO2
KCPW Pagosa Springs, Wolf Creek Pas CO United States 0 0 9999 3/-16 30.62 KCPW 160654Z AUTO 00000KT 10SM CAVOK 03/M16 A3062 RMK AO2
SLLP La Paz / Alto Bolivia 6 0 9999 4/3 30.62 SLLP 160700Z 09006KT 4000E VCFG FEW002 SCT008 BKN200 04/03 Q1037
K5SM Sunlight CO United States 5 0 9999 3/-17 30.55 K5SM 160647Z AUTO 26005KT 10SM CAVOK 03/M17 A3055 RMK AO2
KCCU Copper Mountain, Red Cliff Pas CO United States 15 0 9999 3/-11 30.55 KCCU 160654Z AUTO 26015KT 7SM CAVOK 03/M11 A3055 RMK AO2

Show more